createdAt,value
2018-03-20T00:02:09.144Z,25.07
2018-03-20T00:04:37.452Z,27.57
2018-03-20T00:07:06.499Z,25.30
2018-03-20T00:09:34.772Z,23.17
2018-03-20T00:12:03.045Z,25.80
2018-03-20T00:14:31.359Z,25.57
2018-03-20T00:17:00.390Z,26.03
2018-03-20T00:19:28.908Z,23.33
2018-03-20T00:21:57.981Z,24.20
2018-03-20T00:24:26.264Z,24.33
2018-03-20T00:26:54.557Z,23.67
2018-03-20T00:29:22.835Z,28.93
2018-03-20T00:31:51.118Z,26.93
2018-03-20T00:34:19.394Z,24.07
2018-03-20T00:36:48.455Z,34.77
2018-03-20T00:39:16.790Z,23.67
2018-03-20T00:41:45.118Z,25.07
2018-03-20T00:44:13.970Z,23.13
2018-03-20T00:46:43.366Z,26.43
2018-03-20T00:49:11.770Z,26.90
2018-03-20T00:51:40.005Z,23.40
2018-03-20T00:54:08.289Z,23.27
2018-03-20T00:56:37.383Z,24.63
2018-03-20T00:59:06.418Z,25.30
2018-03-20T01:01:34.693Z,23.43
2018-03-20T01:04:02.970Z,24.37
2018-03-20T01:06:32.025Z,28.80
2018-03-20T01:09:00.310Z,26.17
2018-03-20T01:11:28.583Z,24.33
2018-03-20T01:13:56.913Z,26.27
2018-03-20T01:16:25.175Z,23.17
2018-03-20T01:18:53.479Z,22.53
2018-03-20T01:21:21.775Z,24.23
2018-03-20T01:23:50.073Z,24.77
2018-03-20T01:26:18.350Z,23.50
2018-03-20T01:28:46.679Z,20.87
2018-03-20T01:31:14.953Z,24.33
2018-03-20T01:33:43.241Z,25.97
2018-03-20T01:36:11.690Z,25.10
2018-03-20T01:38:39.962Z,25.43
2018-03-20T01:41:08.270Z,20.50
2018-03-20T01:43:36.553Z,25.27
2018-03-20T01:46:05.244Z,25.30
2018-03-20T01:48:33.595Z,24.70
2018-03-20T01:51:01.872Z,23.10
2018-03-20T01:53:30.131Z,25.40
2018-03-20T01:55:58.399Z,25.13
2018-03-20T01:58:26.692Z,23.77
2018-03-20T02:00:54.967Z,22.70
2018-03-20T02:03:23.235Z,22.73
2018-03-20T02:05:51.527Z,24.37
2018-03-20T02:08:19.814Z,24.13
2018-03-20T02:10:48.145Z,21.33
2018-03-20T02:13:16.416Z,22.43
2018-03-20T02:15:44.685Z,25.10
2018-03-20T02:18:13.776Z,21.50
2018-03-20T02:20:42.807Z,24.53
2018-03-20T02:23:11.846Z,24.33
2018-03-20T02:25:40.803Z,23.07
2018-03-20T02:28:09.073Z,27.57
2018-03-20T02:30:37.372Z,21.13
2018-03-20T02:33:05.638Z,25.60
2018-03-20T02:35:33.897Z,26.97
2018-03-20T02:38:02.161Z,24.47
2018-03-20T02:40:30.440Z,27.83
2018-03-20T02:42:58.738Z,22.90
2018-03-20T02:45:27.002Z,23.63
2018-03-20T02:47:55.300Z,28.57
2018-03-20T02:50:23.570Z,25.17
2018-03-20T02:52:51.869Z,25.20
2018-03-20T02:55:20.128Z,25.60
2018-03-20T02:57:48.404Z,22.57
2018-03-20T03:00:16.698Z,25.03
2018-03-20T03:02:45.022Z,21.80
2018-03-20T03:05:13.276Z,25.13
2018-03-20T03:07:41.565Z,23.53
2018-03-20T03:10:09.856Z,22.17
2018-03-20T03:12:38.132Z,22.27
2018-03-20T03:15:06.404Z,17.97
2018-03-20T03:17:34.667Z,20.73
2018-03-20T03:20:02.950Z,20.87
2018-03-20T03:22:31.216Z,21.20
2018-03-20T03:24:59.499Z,21.67
2018-03-20T03:27:27.743Z,19.10
2018-03-20T03:29:56.846Z,22.03
2018-03-20T03:32:26.925Z,20.77
2018-03-20T03:34:55.213Z,21.67
2018-03-20T03:37:23.481Z,23.90
2018-03-20T03:39:51.776Z,18.30
2018-03-20T03:42:20.080Z,21.50
2018-03-20T03:44:49.284Z,21.00
2018-03-20T03:47:17.818Z,20.17
2018-03-20T03:49:46.163Z,23.83
2018-03-20T03:52:14.427Z,21.83
2018-03-20T03:54:42.751Z,24.23
2018-03-20T03:57:11.036Z,22.07
2018-03-20T03:59:40.049Z,23.77
2018-03-20T04:02:09.092Z,20.20
2018-03-20T04:04:37.533Z,21.33
2018-03-20T04:07:05.811Z,23.87
2018-03-20T04:09:34.429Z,29.90
2018-03-20T04:12:02.727Z,24.47
2018-03-20T04:14:31.002Z,20.17
2018-03-20T04:16:59.248Z,23.27
2018-03-20T04:19:27.540Z,25.43
2018-03-20T04:21:55.812Z,21.80
2018-03-20T04:24:24.124Z,24.40
2018-03-20T04:26:52.794Z,23.53
2018-03-20T04:29:21.119Z,21.00
2018-03-20T04:31:50.868Z,19.80
2018-03-20T04:34:19.993Z,27.67
2018-03-20T04:36:48.281Z,22.97
2018-03-20T04:39:17.310Z,21.63
2018-03-20T04:41:45.598Z,20.93
2018-03-20T04:44:13.909Z,30.57
2018-03-20T04:46:42.200Z,23.27
2018-03-20T04:49:10.475Z,26.63
2018-03-20T04:51:38.742Z,26.37
2018-03-20T04:54:07.029Z,24.90
2018-03-20T04:56:35.324Z,23.90
2018-03-20T04:59:03.600Z,23.57
2018-03-20T05:01:32.811Z,22.63
2018-03-20T05:04:01.702Z,27.33
2018-03-20T05:06:30.750Z,24.37
2018-03-20T05:08:59.044Z,25.10
2018-03-20T05:11:27.328Z,25.13
2018-03-20T05:13:55.632Z,25.40
2018-03-20T05:16:23.966Z,22.53
2018-03-20T05:19:08.112Z,24.77
2018-03-20T05:21:41.290Z,24.10
2018-03-20T05:24:09.612Z,23.20
2018-03-20T05:26:38.647Z,23.53
2018-03-20T05:29:06.913Z,24.50
2018-03-20T05:31:35.182Z,26.10
2018-03-20T05:34:03.463Z,23.57
2018-03-20T05:36:31.754Z,27.33
2018-03-20T05:39:00.017Z,24.10
2018-03-20T05:41:28.356Z,27.27
2018-03-20T05:43:56.598Z,25.00
2018-03-20T05:46:30.545Z,29.40
2018-03-20T05:49:08.743Z,26.77
2018-03-20T05:51:42.796Z,27.13
2018-03-20T05:54:11.056Z,28.67
2018-03-20T05:56:39.325Z,25.70
2018-03-20T05:59:08.199Z,28.33
2018-03-20T06:01:36.458Z,23.87
2018-03-20T06:04:04.728Z,27.77
2018-03-20T06:06:32.995Z,30.57
2018-03-20T06:09:01.370Z,26.87
2018-03-20T06:11:29.639Z,28.27
2018-03-20T06:13:57.925Z,26.70
2018-03-20T06:16:26.182Z,27.07
2018-03-20T06:18:54.504Z,24.87
2018-03-20T06:21:22.764Z,25.10
2018-03-20T06:23:51.192Z,25.87
2018-03-20T06:26:19.444Z,28.90
2018-03-20T06:28:47.736Z,31.43
2018-03-20T06:31:16.054Z,25.90
2018-03-20T06:33:44.338Z,28.40
2018-03-20T06:36:12.638Z,24.83
2018-03-20T06:38:40.912Z,25.77
2018-03-20T06:41:09.219Z,27.03
2018-03-20T06:43:37.547Z,24.20
2018-03-20T06:46:06.586Z,28.53
2018-03-20T06:48:34.924Z,24.23
2018-03-20T06:51:03.253Z,24.70
2018-03-20T06:53:32.254Z,32.60
2018-03-20T06:56:00.554Z,26.63
2018-03-20T06:58:28.838Z,24.33
2018-03-20T07:00:57.132Z,32.60
2018-03-20T07:03:25.429Z,26.57
2018-03-20T07:05:53.716Z,31.70
2018-03-20T07:08:22.035Z,23.97
2018-03-20T07:10:50.306Z,27.40
2018-03-20T07:13:18.575Z,23.17
2018-03-20T07:15:46.915Z,25.97
2018-03-20T07:18:15.202Z,27.17
2018-03-20T07:20:43.488Z,26.37
2018-03-20T07:23:11.758Z,27.03
2018-03-20T07:25:40.035Z,26.10
2018-03-20T07:28:08.320Z,27.67
2018-03-20T07:30:36.575Z,24.80
2018-03-20T07:33:05.648Z,28.90
2018-03-20T07:35:33.961Z,26.50
2018-03-20T07:38:02.984Z,24.93
2018-03-20T07:40:31.258Z,27.97
2018-03-20T07:42:59.546Z,25.40
2018-03-20T07:45:27.898Z,24.50
2018-03-20T07:47:56.152Z,23.93
2018-03-20T07:50:25.200Z,24.60
2018-03-20T07:52:53.449Z,24.07
2018-03-20T07:55:21.765Z,30.37
2018-03-20T07:57:50.028Z,27.23
2018-03-20T08:00:19.188Z,26.90
2018-03-20T08:02:48.363Z,26.97
2018-03-20T08:05:16.680Z,25.40
2018-03-20T08:07:44.995Z,24.63
2018-03-20T08:10:13.276Z,30.07
2018-03-20T08:12:41.592Z,29.73
2018-03-20T08:15:10.649Z,26.70
2018-03-20T08:17:38.942Z,25.53
2018-03-20T08:20:07.980Z,24.73
2018-03-20T08:22:36.259Z,27.63
2018-03-20T08:25:04.537Z,27.53
2018-03-20T08:27:32.819Z,28.80
2018-03-20T08:30:01.834Z,28.67
2018-03-20T08:32:30.184Z,42.10
2018-03-20T08:34:58.463Z,32.30
2018-03-20T08:37:26.759Z,28.93
2018-03-20T08:39:55.834Z,30.23
2018-03-20T08:42:24.120Z,30.50
2018-03-20T08:44:52.406Z,30.87
2018-03-20T08:47:20.676Z,34.57
2018-03-20T08:49:48.969Z,32.63
2018-03-20T08:52:17.267Z,28.83
2018-03-20T08:54:46.377Z,29.10
2018-03-20T08:57:14.628Z,29.90
2018-03-20T08:59:43.995Z,31.57
2018-03-20T09:02:13.209Z,31.65
2018-03-20T09:04:41.652Z,27.50
2018-03-20T09:07:11.773Z,34.10
2018-03-20T09:09:40.112Z,30.73
2018-03-20T09:12:08.442Z,28.03
2018-03-20T09:14:36.733Z,30.10
2018-03-20T09:17:05.067Z,26.30
2018-03-20T09:19:33.456Z,33.50
2018-03-20T09:22:01.766Z,30.93
2018-03-20T09:24:30.097Z,30.60
2018-03-20T09:26:59.174Z,31.73
2018-03-20T09:29:27.731Z,31.03
2018-03-20T09:31:55.998Z,26.57
2018-03-20T09:34:24.272Z,29.03
2018-03-20T09:36:52.557Z,27.50
2018-03-20T09:39:20.832Z,26.27
2018-03-20T09:41:49.146Z,29.10
2018-03-20T09:44:17.410Z,27.27
2018-03-20T09:46:46.001Z,27.97
2018-03-20T09:49:15.019Z,33.70
2018-03-20T09:51:43.664Z,30.27
2018-03-20T09:54:11.965Z,25.73
2018-03-20T09:56:40.250Z,26.43
2018-03-20T09:59:08.562Z,29.40
2018-03-20T10:01:36.808Z,23.47
2018-03-20T10:04:05.113Z,24.20
2018-03-20T10:06:33.472Z,24.43
2018-03-20T10:09:01.729Z,20.97
2018-03-20T10:11:30.393Z,22.97
2018-03-20T10:13:58.671Z,23.17
2018-03-20T10:16:27.056Z,24.57
2018-03-20T10:18:55.506Z,21.77
2018-03-20T10:21:23.759Z,22.23
2018-03-20T10:23:52.069Z,23.67
2018-03-20T10:26:20.325Z,21.43
2018-03-20T10:28:48.655Z,25.83
2018-03-20T10:31:17.816Z,25.00
2018-03-20T10:33:46.071Z,24.47
2018-03-20T10:36:14.455Z,21.13
2018-03-20T10:38:42.744Z,21.90
2018-03-20T10:41:11.088Z,23.67
2018-03-20T10:43:39.358Z,17.10
2018-03-20T10:46:07.648Z,17.77
2018-03-20T10:48:35.955Z,19.23
2018-03-20T10:51:04.228Z,23.30
2018-03-20T10:53:32.536Z,17.97
2018-03-20T10:56:01.644Z,18.10
2018-03-20T10:58:29.908Z,23.40
2018-03-20T11:01:03.840Z,19.80
2018-03-20T11:03:32.121Z,17.43
2018-03-20T11:06:00.400Z,14.63
2018-03-20T11:08:28.672Z,18.10
2018-03-20T11:10:56.939Z,18.27
2018-03-20T11:13:25.249Z,16.23
2018-03-20T11:15:53.514Z,16.77
2018-03-20T11:18:21.793Z,14.07
2018-03-20T11:20:50.044Z,13.47
2018-03-20T11:23:18.451Z,13.90
2018-03-20T11:25:46.754Z,14.37
2018-03-20T11:28:15.041Z,13.40
2018-03-20T11:30:43.293Z,15.20
2018-03-20T11:33:11.568Z,14.60
2018-03-20T11:35:39.865Z,15.70
2018-03-20T11:38:08.120Z,19.07
2018-03-20T11:40:36.399Z,13.07
2018-03-20T11:43:04.652Z,14.43
2018-03-20T11:45:32.917Z,13.87
2018-03-20T11:48:01.200Z,16.93
2018-03-20T11:50:29.494Z,15.63
2018-03-20T11:52:57.757Z,16.37
2018-03-20T11:55:26.042Z,16.37
2018-03-20T11:57:54.303Z,15.83
2018-03-20T12:00:22.644Z,14.40
2018-03-20T12:02:50.902Z,17.77
2018-03-20T12:05:19.146Z,19.13
2018-03-20T12:07:56.102Z,14.83
2018-03-20T12:10:24.421Z,13.70
2018-03-20T12:12:52.708Z,17.03
2018-03-20T12:15:21.079Z,16.60
2018-03-20T12:17:49.316Z,17.10
2018-03-20T12:20:17.580Z,23.90
2018-03-20T12:22:45.953Z,19.17
2018-03-20T12:25:14.267Z,13.43
2018-03-20T12:27:42.594Z,15.37
2018-03-20T12:30:10.949Z,13.53
2018-03-20T12:32:39.233Z,12.67
2018-03-20T12:35:07.503Z,12.90
2018-03-20T12:37:35.803Z,13.63
2018-03-20T12:40:04.843Z,13.17
2018-03-20T12:42:33.144Z,10.87
2018-03-20T12:45:01.407Z,13.60
2018-03-20T12:47:29.652Z,13.53
2018-03-20T12:49:57.937Z,8.80
2018-03-20T12:52:26.213Z,12.60
2018-03-20T12:54:54.489Z,13.40
2018-03-20T12:57:22.751Z,15.43
2018-03-20T12:59:51.018Z,11.17
2018-03-20T13:02:19.284Z,20.20
2018-03-20T13:04:47.624Z,12.73
2018-03-20T13:07:16.625Z,12.00
2018-03-20T13:09:44.897Z,15.07
2018-03-20T13:12:14.027Z,16.03
2018-03-20T13:14:43.160Z,13.13
2018-03-20T13:17:12.120Z,18.03
2018-03-20T13:19:41.359Z,14.20
2018-03-20T13:22:09.624Z,14.90
2018-03-20T13:24:37.867Z,12.50
2018-03-20T13:27:06.149Z,14.20
2018-03-20T13:29:34.427Z,16.03
2018-03-20T13:32:02.700Z,18.03
2018-03-20T13:34:31.006Z,20.20
2018-03-20T13:36:59.301Z,19.50
2018-03-20T13:39:27.584Z,17.93
2018-03-20T13:41:56.087Z,17.10
2018-03-20T13:44:25.117Z,19.00
2018-03-20T13:46:53.386Z,19.43
2018-03-20T13:49:21.661Z,18.63
2018-03-20T13:51:49.924Z,22.37
2018-03-20T13:54:18.207Z,34.03
2018-03-20T13:56:46.462Z,20.50
2018-03-20T13:59:15.565Z,18.80
2018-03-20T14:01:44.584Z,20.07
2018-03-20T14:04:12.931Z,19.90
2018-03-20T14:06:41.324Z,21.37
2018-03-20T14:09:09.549Z,24.40
2018-03-20T14:11:37.912Z,21.63
2018-03-20T14:14:06.210Z,17.20
2018-03-20T14:16:34.489Z,18.57
2018-03-20T14:19:02.995Z,16.27
2018-03-20T14:21:31.282Z,20.63
2018-03-20T14:24:00.325Z,15.47
2018-03-20T14:26:28.611Z,16.00
2018-03-20T14:28:57.331Z,14.30
2018-03-20T14:31:26.424Z,15.60
2018-03-20T14:33:54.717Z,16.40
2018-03-20T14:36:22.995Z,16.57
2018-03-20T14:38:51.317Z,12.97
2018-03-20T14:41:19.592Z,15.27
2018-03-20T14:43:47.878Z,17.97
2018-03-20T14:46:16.175Z,16.03
2018-03-20T14:48:44.461Z,16.27
2018-03-20T14:51:12.746Z,18.47
2018-03-20T14:53:41.819Z,16.53
2018-03-20T14:56:10.110Z,17.00
2018-03-20T14:58:39.157Z,14.67
2018-03-20T15:01:07.481Z,14.90
2018-03-20T15:03:36.559Z,13.97
2018-03-20T15:06:04.813Z,18.37
2018-03-20T15:08:33.110Z,14.03
2018-03-20T15:11:01.412Z,15.67
2018-03-20T15:13:29.774Z,15.50
2018-03-20T15:15:58.030Z,15.70
2018-03-20T15:18:26.407Z,16.27
2018-03-20T15:20:54.698Z,15.77
2018-03-20T15:23:22.978Z,17.60
2018-03-20T15:25:51.225Z,20.40
2018-03-20T15:28:19.504Z,20.03
2018-03-20T15:30:47.808Z,17.47
2018-03-20T15:33:16.077Z,17.60
2018-03-20T15:35:44.412Z,17.83
2018-03-20T15:38:12.681Z,21.43
2018-03-20T15:40:40.935Z,19.50
2018-03-20T15:43:09.212Z,18.83
2018-03-20T15:45:37.481Z,18.93
2018-03-20T15:48:06.624Z,17.33
2018-03-20T15:50:34.867Z,18.77
2018-03-20T15:53:03.165Z,19.90
2018-03-20T15:55:31.432Z,16.97
2018-03-20T15:57:59.712Z,19.57
2018-03-20T16:00:27.964Z,20.20
2018-03-20T16:02:56.236Z,23.60
2018-03-20T16:05:25.802Z,19.53
2018-03-20T16:07:54.085Z,19.90
2018-03-20T16:10:22.361Z,19.73
2018-03-20T16:12:50.619Z,19.87
2018-03-20T16:15:18.926Z,25.10
2018-03-20T16:17:47.188Z,20.47
2018-03-20T16:20:15.815Z,18.23
2018-03-20T16:22:44.860Z,21.37
2018-03-20T16:25:13.101Z,18.40
2018-03-20T16:27:41.379Z,21.03
2018-03-20T16:30:09.688Z,20.00
2018-03-20T16:32:37.979Z,20.70
2018-03-20T16:35:06.233Z,19.70
2018-03-20T16:37:34.497Z,23.57
2018-03-20T16:40:02.751Z,23.40
2018-03-20T16:42:31.049Z,24.30
2018-03-20T16:44:59.339Z,23.07
2018-03-20T16:47:27.593Z,22.93
2018-03-20T16:49:55.874Z,21.30
2018-03-20T16:52:24.129Z,23.50
2018-03-20T16:54:52.395Z,24.93
2018-03-20T16:57:21.587Z,23.70
2018-03-20T16:59:49.894Z,19.60
2018-03-20T17:02:18.154Z,23.93
2018-03-20T17:04:47.275Z,22.13
2018-03-20T17:07:15.542Z,23.27
2018-03-20T17:09:43.912Z,24.50
2018-03-20T17:12:12.968Z,19.63
2018-03-20T17:14:41.268Z,23.57
2018-03-20T17:17:09.545Z,18.67
2018-03-20T17:19:37.838Z,21.97
2018-03-20T17:22:06.115Z,19.27
2018-03-20T17:24:34.424Z,21.83
2018-03-20T17:27:02.704Z,21.30
2018-03-20T17:29:30.963Z,23.20
2018-03-20T17:31:59.240Z,20.50
2018-03-20T17:34:27.577Z,20.63
2018-03-20T17:36:56.696Z,19.70
2018-03-20T17:39:24.951Z,22.67
2018-03-20T17:41:53.271Z,22.73
2018-03-20T17:44:21.516Z,22.20
2018-03-20T17:46:49.837Z,20.70
2018-03-20T17:49:18.122Z,24.60
2018-03-20T17:51:46.382Z,20.03
2018-03-20T17:54:15.616Z,22.83
2018-03-20T17:56:44.692Z,21.83
2018-03-20T17:59:13.729Z,21.07
2018-03-20T18:01:42.773Z,27.27
2018-03-20T18:04:11.081Z,32.20
2018-03-20T18:06:39.356Z,21.13
2018-03-20T18:09:07.873Z,26.83
2018-03-20T18:11:36.126Z,22.93
2018-03-20T18:14:05.178Z,20.83
2018-03-20T18:16:33.482Z,21.20
2018-03-20T18:19:01.924Z,23.40
2018-03-20T18:21:30.444Z,22.77
2018-03-20T18:23:58.732Z,25.50
2018-03-20T18:26:27.050Z,25.97
2018-03-20T18:28:55.390Z,25.10
2018-03-20T18:31:24.465Z,23.73
2018-03-20T18:33:53.539Z,25.77
2018-03-20T18:36:22.084Z,25.83
2018-03-20T18:38:50.514Z,25.97
2018-03-20T18:41:18.801Z,24.33
2018-03-20T18:43:47.067Z,29.07
2018-03-20T18:46:15.372Z,24.67
2018-03-20T18:48:43.749Z,26.47
2018-03-20T18:51:12.087Z,29.87
2018-03-20T18:53:40.535Z,28.43
2018-03-20T18:56:08.823Z,28.13
2018-03-20T18:58:37.147Z,29.67
2018-03-20T19:01:05.406Z,28.73
2018-03-20T19:03:33.687Z,31.13
2018-03-20T19:06:02.808Z,31.27
2018-03-20T19:08:31.869Z,33.00
2018-03-20T19:11:00.165Z,29.37
2018-03-20T19:13:28.563Z,32.90
2018-03-20T19:15:56.834Z,37.70
2018-03-20T19:18:25.167Z,37.83
2018-03-20T19:20:53.588Z,36.33
2018-03-20T19:23:22.650Z,30.90
2018-03-20T19:25:51.083Z,35.87
2018-03-20T19:28:19.415Z,35.57
2018-03-20T19:30:47.680Z,31.70
2018-03-20T19:33:15.961Z,29.63
2018-03-20T19:35:44.256Z,32.87
2018-03-20T19:38:13.327Z,33.97
2018-03-20T19:40:41.660Z,30.83
2018-03-20T19:43:09.994Z,32.10
2018-03-20T19:45:38.276Z,32.33
2018-03-20T19:48:06.547Z,29.20
2018-03-20T19:50:35.608Z,31.90
2018-03-20T19:53:03.893Z,39.27
2018-03-20T19:55:32.200Z,29.70
2018-03-20T19:58:00.514Z,30.60
2018-03-20T20:00:28.772Z,28.67
2018-03-20T20:02:57.853Z,33.30
2018-03-20T20:05:26.106Z,29.63
2018-03-20T20:07:54.393Z,33.13
2018-03-20T20:10:22.697Z,29.87
2018-03-20T20:12:52.533Z,28.77
2018-03-20T20:15:20.846Z,29.87
2018-03-20T20:17:49.123Z,33.03
2018-03-20T20:20:18.200Z,32.27
2018-03-20T20:22:46.466Z,29.23
2018-03-20T20:25:14.744Z,30.23
2018-03-20T20:27:43.028Z,30.60
2018-03-20T20:30:11.398Z,32.53
2018-03-20T20:32:39.690Z,30.13
2018-03-20T20:35:07.956Z,29.13
2018-03-20T20:37:36.213Z,31.20
2018-03-20T20:40:04.517Z,31.53
2018-03-20T20:42:32.772Z,29.07
2018-03-20T20:45:01.102Z,29.10
2018-03-20T20:47:30.146Z,32.57
2018-03-20T20:49:58.587Z,28.57
2018-03-20T20:52:27.633Z,28.33
2018-03-20T20:54:55.917Z,28.40
2018-03-20T20:57:24.239Z,26.87
2018-03-20T20:59:53.286Z,26.17
2018-03-20T21:02:21.570Z,24.43
2018-03-20T21:04:49.946Z,26.03
2018-03-20T21:07:18.224Z,29.03
2018-03-20T21:09:46.550Z,26.73
2018-03-20T21:12:14.844Z,28.20
2018-03-20T21:14:43.118Z,23.90
2018-03-20T21:17:11.399Z,26.53
2018-03-20T21:19:39.724Z,26.43
2018-03-20T21:22:08.016Z,30.07
2018-03-20T21:24:37.052Z,27.60
2018-03-20T21:27:05.433Z,25.03
2018-03-20T21:29:33.741Z,27.27
2018-03-20T21:32:02.041Z,23.53
2018-03-20T21:34:30.412Z,25.33
2018-03-20T21:36:58.769Z,26.90
2018-03-20T21:39:27.127Z,24.90
2018-03-20T21:41:55.478Z,24.10
2018-03-20T21:44:23.742Z,23.97
2018-03-20T21:46:52.196Z,23.73
2018-03-20T21:49:20.564Z,26.60
2018-03-20T21:51:48.869Z,23.90
2018-03-20T21:54:17.140Z,24.23
2018-03-20T21:56:46.213Z,25.27
2018-03-20T21:59:14.551Z,24.00
2018-03-20T22:01:42.831Z,22.57
2018-03-20T22:04:11.134Z,28.60
2018-03-20T22:06:40.130Z,24.33
2018-03-20T22:09:08.416Z,24.23
2018-03-20T22:11:36.696Z,23.10
2018-03-20T22:14:04.980Z,23.57
2018-03-20T22:16:33.304Z,20.13
2018-03-20T22:19:01.561Z,21.23
2018-03-20T22:21:29.878Z,21.57
2018-03-20T22:23:58.150Z,21.83
2018-03-20T22:26:26.435Z,23.23
2018-03-20T22:28:55.526Z,22.50
2018-03-20T22:31:23.832Z,24.00
2018-03-20T22:33:52.269Z,23.50
2018-03-20T22:36:20.653Z,20.53
2018-03-20T22:38:48.916Z,26.87
2018-03-20T22:41:17.234Z,24.43
2018-03-20T22:43:45.531Z,19.97
2018-03-20T22:46:13.913Z,20.87
2018-03-20T22:48:42.176Z,21.60
2018-03-20T22:51:11.016Z,19.93
2018-03-20T22:53:39.327Z,20.27
2018-03-20T22:56:07.595Z,21.70
2018-03-20T22:58:35.885Z,20.93
2018-03-20T23:01:04.151Z,19.83
2018-03-20T23:03:32.609Z,21.57
2018-03-20T23:06:01.427Z,20.03
2018-03-20T23:08:30.548Z,18.63
2018-03-20T23:10:59.580Z,19.53
2018-03-20T23:13:27.875Z,19.33
2018-03-20T23:15:56.210Z,18.30
2018-03-20T23:18:25.265Z,20.60
2018-03-20T23:20:53.525Z,18.87
2018-03-20T23:23:21.812Z,15.73
2018-03-20T23:25:50.086Z,18.27
2018-03-20T23:28:18.377Z,19.30
2018-03-20T23:30:46.639Z,19.57
2018-03-20T23:33:14.928Z,17.40
2018-03-20T23:35:43.254Z,18.13
2018-03-20T23:38:12.296Z,15.27
2018-03-20T23:40:40.565Z,15.80
2018-03-20T23:43:08.884Z,16.53
2018-03-20T23:45:37.911Z,16.27
2018-03-20T23:48:06.180Z,14.03
2018-03-20T23:50:34.498Z,14.57
2018-03-20T23:53:02.739Z,18.60
2018-03-20T23:55:31.032Z,14.70
2018-03-20T23:57:59.285Z,14.47
